sensor_id;sensor_type;location;lat;lon;timestamp;temperature;humidity
28484;DHT22;15704;48.834;8.736;2024-03-23T00:54:00;14.10;99.90
28484;DHT22;15704;48.834;8.736;2024-03-23T00:56:26;14.10;99.90
28484;DHT22;15704;48.834;8.736;2024-03-23T00:58:52;14.10;99.90
28484;DHT22;15704;48.834;8.736;2024-03-23T01:01:18;14.10;99.90
28484;DHT22;15704;48.834;8.736;2024-03-23T01:03:44;14.10;99.90
28484;DHT22;15704;48.834;8.736;2024-03-23T01:06:10;14.10;99.90
28484;DHT22;15704;48.834;8.736;2024-03-23T01:08:36;14.10;99.90
28484;DHT22;15704;48.834;8.736;2024-03-23T01:11:02;14.10;99.90
28484;DHT22;15704;48.834;8.736;2024-03-23T01:13:28;14.00;99.90
28484;DHT22;15704;48.834;8.736;2024-03-23T01:15:55;14.00;99.90
28484;DHT22;15704;48.834;8.736;2024-03-23T01:18:23;14.10;99.90
28484;DHT22;15704;48.834;8.736;2024-03-23T01:20:49;14.10;99.90
28484;DHT22;15704;48.834;8.736;2024-03-23T01:23:15;14.00;99.90
28484;DHT22;15704;48.834;8.736;2024-03-23T01:25:41;14.10;99.90
28484;DHT22;15704;48.834;8.736;2024-03-23T01:28:07;14.10;99.90
28484;DHT22;15704;48.834;8.736;2024-03-23T01:30:37;14.00;99.90
28484;DHT22;15704;48.834;8.736;2024-03-23T01:33:03;14.00;99.90
28484;DHT22;15704;48.834;8.736;2024-03-23T01:35:29;14.10;99.90
28484;DHT22;15704;48.834;8.736;2024-03-23T01:37:55;14.00;99.90
28484;DHT22;15704;48.834;8.736;2024-03-23T01:40:21;14.00;99.90
28484;DHT22;15704;48.834;8.736;2024-03-23T01:43:02;14.00;99.90
28484;DHT22;15704;48.834;8.736;2024-03-23T01:45:29;14.00;99.90
28484;DHT22;15704;48.834;8.736;2024-03-23T01:47:55;14.00;99.90
28484;DHT22;15704;48.834;8.736;2024-03-23T01:50:21;14.00;99.90
28484;DHT22;15704;48.834;8.736;2024-03-23T01:52:48;14.00;99.90
28484;DHT22;15704;48.834;8.736;2024-03-23T01:55:14;14.00;99.90
28484;DHT22;15704;48.834;8.736;2024-03-23T01:57:40;14.00;99.90
28484;DHT22;15704;48.834;8.736;2024-03-23T02:00:07;14.00;99.90
28484;DHT22;15704;48.834;8.736;2024-03-23T02:02:35;14.00;99.90
28484;DHT22;15704;48.834;8.736;2024-03-23T02:05:00;14.00;99.90
28484;DHT22;15704;48.834;8.736;2024-03-23T02:07:27;14.00;99.90
28484;DHT22;15704;48.834;8.736;2024-03-23T02:09:53;14.00;99.90
28484;DHT22;15704;48.834;8.736;2024-03-23T02:12:20;14.00;99.90
28484;DHT22;15704;48.834;8.736;2024-03-23T02:14:46;14.00;99.90
28484;DHT22;15704;48.834;8.736;2024-03-23T02:17:13;14.00;99.90
28484;DHT22;15704;48.834;8.736;2024-03-23T02:19:39;14.00;99.90
28484;DHT22;15704;48.834;8.736;2024-03-23T02:22:05;14.00;99.90
28484;DHT22;15704;48.834;8.736;2024-03-23T02:24:30;14.00;99.90
28484;DHT22;15704;48.834;8.736;2024-03-23T02:26:57;14.00;99.90
28484;DHT22;15704;48.834;8.736;2024-03-23T02:29:22;14.00;99.90
28484;DHT22;15704;48.834;8.736;2024-03-23T02:31:48;14.00;99.90
28484;DHT22;15704;48.834;8.736;2024-03-23T02:34:14;14.00;99.90
28484;DHT22;15704;48.834;8.736;2024-03-23T02:36:40;14.00;99.90
28484;DHT22;15704;48.834;8.736;2024-03-23T02:39:06;14.00;99.90
28484;DHT22;15704;48.834;8.736;2024-03-23T02:41:32;14.00;99.90
28484;DHT22;15704;48.834;8.736;2024-03-23T02:43:58;14.00;99.90
28484;DHT22;15704;48.834;8.736;2024-03-23T02:46:23;14.00;99.90
28484;DHT22;15704;48.834;8.736;2024-03-23T02:48:49;14.00;99.90
28484;DHT22;15704;48.834;8.736;2024-03-23T02:51:15;14.00;99.90
28484;DHT22;15704;48.834;8.736;2024-03-23T02:53:41;14.00;99.90
28484;DHT22;15704;48.834;8.736;2024-03-23T02:56:07;14.00;99.90
28484;DHT22;15704;48.834;8.736;2024-03-23T02:58:34;14.00;99.90
28484;DHT22;15704;48.834;8.736;2024-03-23T03:01:00;14.00;99.90
28484;DHT22;15704;48.834;8.736;2024-03-23T03:03:26;14.00;99.90
28484;DHT22;15704;48.834;8.736;2024-03-23T03:05:55;14.00;99.90
28484;DHT22;15704;48.834;8.736;2024-03-23T03:08:22;14.00;99.90
28484;DHT22;15704;48.834;8.736;2024-03-23T03:10:48;14.00;99.90
28484;DHT22;15704;48.834;8.736;2024-03-23T03:13:13;14.00;99.90
28484;DHT22;15704;48.834;8.736;2024-03-23T03:15:48;14.00;99.90
28484;DHT22;15704;48.834;8.736;2024-03-23T03:18:14;14.00;99.90
28484;DHT22;15704;48.834;8.736;2024-03-23T03:20:40;14.00;99.90
28484;DHT22;15704;48.834;8.736;2024-03-23T03:23:07;14.00;99.90
28484;DHT22;15704;48.834;8.736;2024-03-23T03:25:33;14.00;99.90
28484;DHT22;15704;48.834;8.736;2024-03-23T03:27:59;14.00;99.90
28484;DHT22;15704;48.834;8.736;2024-03-23T03:30:25;14.00;99.90
28484;DHT22;15704;48.834;8.736;2024-03-23T03:32:53;14.00;99.90
28484;DHT22;15704;48.834;8.736;2024-03-23T03:35:19;14.00;99.90
28484;DHT22;15704;48.834;8.736;2024-03-23T03:37:45;14.00;99.90
28484;DHT22;15704;48.834;8.736;2024-03-23T03:40:12;14.00;99.90
28484;DHT22;15704;48.834;8.736;2024-03-23T03:42:41;14.00;99.90
28484;DHT22;15704;48.834;8.736;2024-03-23T03:45:07;14.00;99.90
28484;DHT22;15704;48.834;8.736;2024-03-23T03:47:33;14.00;99.90
28484;DHT22;15704;48.834;8.736;2024-03-23T03:49:59;14.00;99.90
28484;DHT22;15704;48.834;8.736;2024-03-23T03:52:25;14.00;99.90
28484;DHT22;15704;48.834;8.736;2024-03-23T03:54:51;14.00;99.90
28484;DHT22;15704;48.834;8.736;2024-03-23T03:57:16;14.00;99.90
28484;DHT22;15704;48.834;8.736;2024-03-23T03:59:42;14.00;99.90
28484;DHT22;15704;48.834;8.736;2024-03-23T04:02:08;14.00;99.90
28484;DHT22;15704;48.834;8.736;2024-03-23T04:04:34;14.00;99.90
28484;DHT22;15704;48.834;8.736;2024-03-23T04:07:01;14.00;99.90
28484;DHT22;15704;48.834;8.736;2024-03-23T04:09:27;14.00;99.90
28484;DHT22;15704;48.834;8.736;2024-03-23T04:11:53;14.00;99.90
28484;DHT22;15704;48.834;8.736;2024-03-23T04:14:19;14.00;99.90
28484;DHT22;15704;48.834;8.736;2024-03-23T04:16:45;14.00;99.90
28484;DHT22;15704;48.834;8.736;2024-03-23T04:19:11;14.00;99.90
28484;DHT22;15704;48.834;8.736;2024-03-23T04:21:40;14.00;99.90
28484;DHT22;15704;48.834;8.736;2024-03-23T04:24:06;14.00;99.90
28484;DHT22;15704;48.834;8.736;2024-03-23T04:26:42;14.00;99.90
28484;DHT22;15704;48.834;8.736;2024-03-23T04:29:08;14.00;99.90
28484;DHT22;15704;48.834;8.736;2024-03-23T04:31:34;14.00;99.90
28484;DHT22;15704;48.834;8.736;2024-03-23T04:34:03;14.00;99.90
28484;DHT22;15704;48.834;8.736;2024-03-23T04:36:29;14.00;99.90
28484;DHT22;15704;48.834;8.736;2024-03-23T04:39:00;14.00;99.90
28484;DHT22;15704;48.834;8.736;2024-03-23T04:41:26;14.00;99.90
28484;DHT22;15704;48.834;8.736;2024-03-23T04:43:52;14.00;99.90
28484;DHT22;15704;48.834;8.736;2024-03-23T04:46:18;13.90;99.90
28484;DHT22;15704;48.834;8.736;2024-03-23T04:48:44;14.00;99.90
28484;DHT22;15704;48.834;8.736;2024-03-23T04:51:10;14.00;99.90
28484;DHT22;15704;48.834;8.736;2024-03-23T04:53:38;13.90;99.90
28484;DHT22;15704;48.834;8.736;2024-03-23T04:56:04;13.90;99.90
28484;DHT22;15704;48.834;8.736;2024-03-23T04:58:30;13.90;99.90
28484;DHT22;15704;48.834;8.736;2024-03-23T05:00:56;13.90;99.90
28484;DHT22;15704;48.834;8.736;2024-03-23T05:03:23;13.90;99.90
28484;DHT22;15704;48.834;8.736;2024-03-23T05:05:50;13.90;99.90
28484;DHT22;15704;48.834;8.736;2024-03-23T05:08:16;13.90;99.90
28484;DHT22;15704;48.834;8.736;2024-03-23T05:10:42;13.90;99.90
28484;DHT22;15704;48.834;8.736;2024-03-23T05:13:09;13.90;99.90
28484;DHT22;15704;48.834;8.736;2024-03-23T05:15:35;13.80;99.90
28484;DHT22;15704;48.834;8.736;2024-03-23T05:18:01;13.90;99.90
28484;DHT22;15704;48.834;8.736;2024-03-23T05:20:27;13.90;99.90
28484;DHT22;15704;48.834;8.736;2024-03-23T05:22:54;13.90;99.90
28484;DHT22;15704;48.834;8.736;2024-03-23T05:25:20;13.90;99.90
28484;DHT22;15704;48.834;8.736;2024-03-23T05:27:49;13.80;99.90
28484;DHT22;15704;48.834;8.736;2024-03-23T05:30:15;13.80;99.90
28484;DHT22;15704;48.834;8.736;2024-03-23T05:32:41;13.80;99.90
28484;DHT22;15704;48.834;8.736;2024-03-23T05:35:09;13.80;99.90
28484;DHT22;15704;48.834;8.736;2024-03-23T05:37:35;13.80;99.90
28484;DHT22;15704;48.834;8.736;2024-03-23T05:40:01;13.80;99.90
28484;DHT22;15704;48.834;8.736;2024-03-23T05:42:29;13.80;99.90
28484;DHT22;15704;48.834;8.736;2024-03-23T05:44:55;13.80;99.90
28484;DHT22;15704;48.834;8.736;2024-03-23T05:47:21;13.80;99.90
28484;DHT22;15704;48.834;8.736;2024-03-23T05:49:47;13.80;99.90
28484;DHT22;15704;48.834;8.736;2024-03-23T05:52:13;13.80;99.90
28484;DHT22;15704;48.834;8.736;2024-03-23T05:54:39;13.80;99.90
28484;DHT22;15704;48.834;8.736;2024-03-23T05:57:05;13.80;99.90
28484;DHT22;15704;48.834;8.736;2024-03-23T05:59:33;13.80;99.90
28484;DHT22;15704;48.834;8.736;2024-03-23T06:01:59;13.80;99.90
28484;DHT22;15704;48.834;8.736;2024-03-23T06:04:25;13.70;99.90
28484;DHT22;15704;48.834;8.736;2024-03-23T06:06:54;13.70;99.90
28484;DHT22;15704;48.834;8.736;2024-03-23T06:09:20;13.70;99.90
28484;DHT22;15704;48.834;8.736;2024-03-23T06:11:46;13.70;99.90
28484;DHT22;15704;48.834;8.736;2024-03-23T06:14:12;13.70;99.90
28484;DHT22;15704;48.834;8.736;2024-03-23T06:16:38;13.70;99.90
28484;DHT22;15704;48.834;8.736;2024-03-23T06:19:04;13.70;99.90
28484;DHT22;15704;48.834;8.736;2024-03-23T06:21:32;13.70;99.90
28484;DHT22;15704;48.834;8.736;2024-03-23T06:23:59;13.70;99.90
28484;DHT22;15704;48.834;8.736;2024-03-23T06:26:25;13.70;99.90
28484;DHT22;15704;48.834;8.736;2024-03-23T06:28:51;13.70;99.90
28484;DHT22;15704;48.834;8.736;2024-03-23T06:31:17;13.70;99.90
28484;DHT22;15704;48.834;8.736;2024-03-23T06:33:43;13.60;99.90
28484;DHT22;15704;48.834;8.736;2024-03-23T06:36:10;13.60;99.90
28484;DHT22;15704;48.834;8.736;2024-03-23T06:38:37;13.60;99.90
28484;DHT22;15704;48.834;8.736;2024-03-23T06:41:04;13.60;99.90
28484;DHT22;15704;48.834;8.736;2024-03-23T06:43:30;13.60;99.90
28484;DHT22;15704;48.834;8.736;2024-03-23T06:45:56;13.60;99.90
28484;DHT22;15704;48.834;8.736;2024-03-23T06:48:22;13.60;99.90
28484;DHT22;15704;48.834;8.736;2024-03-23T06:50:48;13.60;99.90
28484;DHT22;15704;48.834;8.736;2024-03-23T06:53:15;13.60;99.90
28484;DHT22;15704;48.834;8.736;2024-03-23T06:55:41;13.60;99.90
28484;DHT22;15704;48.834;8.736;2024-03-23T06:58:08;13.60;99.90
28484;DHT22;15704;48.834;8.736;2024-03-23T07:00:34;13.60;99.90
28484;DHT22;15704;48.834;8.736;2024-03-23T07:03:00;13.60;99.90
28484;DHT22;15704;48.834;8.736;2024-03-23T07:05:26;13.60;99.90
28484;DHT22;15704;48.834;8.736;2024-03-23T07:07:54;13.60;99.90
28484;DHT22;15704;48.834;8.736;2024-03-23T07:10:20;13.50;99.90
28484;DHT22;15704;48.834;8.736;2024-03-23T07:12:46;13.60;99.90
28484;DHT22;15704;48.834;8.736;2024-03-23T07:15:12;13.50;99.90
28484;DHT22;15704;48.834;8.736;2024-03-23T07:17:38;13.50;99.90
28484;DHT22;15704;48.834;8.736;2024-03-23T07:20:04;13.50;99.90
28484;DHT22;15704;48.834;8.736;2024-03-23T07:22:30;13.50;99.90
28484;DHT22;15704;48.834;8.736;2024-03-23T07:24:59;13.50;99.90
28484;DHT22;15704;48.834;8.736;2024-03-23T07:27:25;13.50;99.90
28484;DHT22;15704;48.834;8.736;2024-03-23T07:29:51;13.50;99.90
28484;DHT22;15704;48.834;8.736;2024-03-23T07:32:17;13.50;99.90
28484;DHT22;15704;48.834;8.736;2024-03-23T07:34:43;13.50;99.90
28484;DHT22;15704;48.834;8.736;2024-03-23T07:37:10;13.40;99.90
28484;DHT22;15704;48.834;8.736;2024-03-23T07:39:36;13.50;99.90
28484;DHT22;15704;48.834;8.736;2024-03-23T07:42:02;13.50;99.90
28484;DHT22;15704;48.834;8.736;2024-03-23T07:44:28;13.50;99.90
28484;DHT22;15704;48.834;8.736;2024-03-23T07:46:54;13.50;99.90
28484;DHT22;15704;48.834;8.736;2024-03-23T07:49:20;13.40;99.90
28484;DHT22;15704;48.834;8.736;2024-03-23T07:51:45;13.40;99.90
28484;DHT22;15704;48.834;8.736;2024-03-23T07:54:11;13.40;99.90
28484;DHT22;15704;48.834;8.736;2024-03-23T07:56:37;13.40;99.90
28484;DHT22;15704;48.834;8.736;2024-03-23T07:59:03;13.40;99.90
28484;DHT22;15704;48.834;8.736;2024-03-23T08:01:29;13.40;99.90
28484;DHT22;15704;48.834;8.736;2024-03-23T08:03:55;13.40;99.90
28484;DHT22;15704;48.834;8.736;2024-03-23T08:06:21;13.40;99.90
28484;DHT22;15704;48.834;8.736;2024-03-23T08:08:51;13.40;99.90
28484;DHT22;15704;48.834;8.736;2024-03-23T08:11:29;13.40;99.90
28484;DHT22;15704;48.834;8.736;2024-03-23T08:13:55;13.40;99.90
28484;DHT22;15704;48.834;8.736;2024-03-23T08:16:21;13.40;99.90
28484;DHT22;15704;48.834;8.736;2024-03-23T08:18:47;13.40;99.90
28484;DHT22;15704;48.834;8.736;2024-03-23T08:21:13;13.40;99.90
28484;DHT22;15704;48.834;8.736;2024-03-23T08:23:39;13.40;99.90
28484;DHT22;15704;48.834;8.736;2024-03-23T08:26:07;13.40;99.90
28484;DHT22;15704;48.834;8.736;2024-03-23T08:28:34;13.40;99.90
28484;DHT22;15704;48.834;8.736;2024-03-23T08:31:05;13.40;99.90
28484;DHT22;15704;48.834;8.736;2024-03-23T08:33:31;13.40;99.90
28484;DHT22;15704;48.834;8.736;2024-03-23T08:35:59;13.40;99.90
28484;DHT22;15704;48.834;8.736;2024-03-23T08:38:26;13.40;99.90
28484;DHT22;15704;48.834;8.736;2024-03-23T08:43:25;13.40;99.90
28484;DHT22;15704;48.834;8.736;2024-03-23T08:45:51;13.40;99.90
28484;DHT22;15704;48.834;8.736;2024-03-23T08:48:18;13.40;99.90
28484;DHT22;15704;48.834;8.736;2024-03-23T08:50:47;13.40;99.90
28484;DHT22;15704;48.834;8.736;2024-03-23T08:53:12;13.40;99.90
28484;DHT22;15704;48.834;8.736;2024-03-23T08:55:38;13.40;99.90
28484;DHT22;15704;48.834;8.736;2024-03-23T08:58:05;13.40;99.90
28484;DHT22;15704;48.834;8.736;2024-03-23T09:00:34;13.40;99.90
28484;DHT22;15704;48.834;8.736;2024-03-23T09:03:00;13.40;99.90
28484;DHT22;15704;48.834;8.736;2024-03-23T09:05:27;13.40;99.90
28484;DHT22;15704;48.834;8.736;2024-03-23T09:07:54;13.40;99.90
28484;DHT22;15704;48.834;8.736;2024-03-23T09:10:20;13.40;99.90
28484;DHT22;15704;48.834;8.736;2024-03-23T09:12:46;13.40;99.90
28484;DHT22;15704;48.834;8.736;2024-03-23T09:15:11;13.40;99.90
28484;DHT22;15704;48.834;8.736;2024-03-23T09:17:37;13.40;99.90
28484;DHT22;15704;48.834;8.736;2024-03-23T09:20:03;13.40;99.90
28484;DHT22;15704;48.834;8.736;2024-03-23T09:22:30;13.40;99.90
28484;DHT22;15704;48.834;8.736;2024-03-23T09:24:55;13.40;99.90
28484;DHT22;15704;48.834;8.736;2024-03-23T09:27:21;13.40;99.90
28484;DHT22;15704;48.834;8.736;2024-03-23T09:29:47;13.40;99.90
28484;DHT22;15704;48.834;8.736;2024-03-23T09:32:13;13.40;99.90
28484;DHT22;15704;48.834;8.736;2024-03-23T09:34:39;13.40;99.90
28484;DHT22;15704;48.834;8.736;2024-03-23T09:37:04;13.40;99.90
28484;DHT22;15704;48.834;8.736;2024-03-23T09:39:30;13.40;99.90
28484;DHT22;15704;48.834;8.736;2024-03-23T09:41:58;13.40;99.90
28484;DHT22;15704;48.834;8.736;2024-03-23T09:44:24;13.40;99.90
28484;DHT22;15704;48.834;8.736;2024-03-23T09:46:51;13.40;99.90
28484;DHT22;15704;48.834;8.736;2024-03-23T09:49:17;13.40;99.90
28484;DHT22;15704;48.834;8.736;2024-03-23T09:51:43;13.40;99.90
28484;DHT22;15704;48.834;8.736;2024-03-23T09:54:09;13.40;99.90
28484;DHT22;15704;48.834;8.736;2024-03-23T09:56:35;13.40;99.90
28484;DHT22;15704;48.834;8.736;2024-03-23T09:59:04;13.40;99.90
28484;DHT22;15704;48.834;8.736;2024-03-23T10:01:30;13.40;99.90
28484;DHT22;15704;48.834;8.736;2024-03-23T10:03:56;13.40;99.90
28484;DHT22;15704;48.834;8.736;2024-03-23T10:06:22;13.40;99.90
28484;DHT22;15704;48.834;8.736;2024-03-23T10:08:51;13.40;99.90
28484;DHT22;15704;48.834;8.736;2024-03-23T10:11:18;13.40;99.90
28484;DHT22;15704;48.834;8.736;2024-03-23T10:13:45;13.40;99.90
28484;DHT22;15704;48.834;8.736;2024-03-23T10:16:23;13.40;99.90
28484;DHT22;15704;48.834;8.736;2024-03-23T10:18:50;13.40;99.90
28484;DHT22;15704;48.834;8.736;2024-03-23T10:21:16;13.40;99.90
28484;DHT22;15704;48.834;8.736;2024-03-23T10:23:43;13.40;99.90
28484;DHT22;15704;48.834;8.736;2024-03-23T10:26:27;13.40;99.90
28484;DHT22;15704;48.834;8.736;2024-03-23T10:29:00;13.40;99.90
28484;DHT22;15704;48.834;8.736;2024-03-23T10:31:30;13.40;99.90
28484;DHT22;15704;48.834;8.736;2024-03-23T10:33:57;13.40;99.90
28484;DHT22;15704;48.834;8.736;2024-03-23T10:36:24;13.40;99.90
28484;DHT22;15704;48.834;8.736;2024-03-23T10:38:52;13.40;99.90
28484;DHT22;15704;48.834;8.736;2024-03-23T10:41:18;13.30;99.90
28484;DHT22;15704;48.834;8.736;2024-03-23T10:43:48;13.30;99.90
28484;DHT22;15704;48.834;8.736;2024-03-23T10:46:15;13.30;99.90
28484;DHT22;15704;48.834;8.736;2024-03-23T10:48:41;13.30;99.90
28484;DHT22;15704;48.834;8.736;2024-03-23T10:51:08;13.30;99.90
28484;DHT22;15704;48.834;8.736;2024-03-23T10:53:34;13.30;99.90
28484;DHT22;15704;48.834;8.736;2024-03-23T10:56:03;13.20;99.90
28484;DHT22;15704;48.834;8.736;2024-03-23T11:00:57;13.20;99.90
28484;DHT22;15704;48.834;8.736;2024-03-23T11:03:37;13.30;99.90
28484;DHT22;15704;48.834;8.736;2024-03-23T11:06:07;13.20;99.90
28484;DHT22;15704;48.834;8.736;2024-03-23T11:08:36;13.20;99.90
28484;DHT22;15704;48.834;8.736;2024-03-23T11:13:38;13.20;99.90
28484;DHT22;15704;48.834;8.736;2024-03-23T11:18:49;13.20;99.90
28484;DHT22;15704;48.834;8.736;2024-03-23T11:21:52;13.30;99.90
28484;DHT22;15704;48.834;8.736;2024-03-23T11:24:22;13.20;99.90
28484;DHT22;15704;48.834;8.736;2024-03-23T11:26:48;13.20;99.90
28484;DHT22;15704;48.834;8.736;2024-03-23T11:29:16;13.30;99.90
28484;DHT22;15704;48.834;8.736;2024-03-23T11:31:52;13.30;99.90
28484;DHT22;15704;48.834;8.736;2024-03-23T11:34:19;13.30;99.90
28484;DHT22;15704;48.834;8.736;2024-03-23T11:36:46;13.30;99.90
28484;DHT22;15704;48.834;8.736;2024-03-23T11:39:16;13.30;99.90
28484;DHT22;15704;48.834;8.736;2024-03-23T11:44:20;13.30;99.90
28484;DHT22;15704;48.834;8.736;2024-03-23T11:46:46;13.30;99.90
28484;DHT22;15704;48.834;8.736;2024-03-23T11:49:29;13.30;99.90
28484;DHT22;15704;48.834;8.736;2024-03-23T11:51:56;13.30;99.90
28484;DHT22;15704;48.834;8.736;2024-03-23T11:54:23;13.30;99.90
28484;DHT22;15704;48.834;8.736;2024-03-23T11:57:07;13.30;99.90
28484;DHT22;15704;48.834;8.736;2024-03-23T11:59:35;13.30;99.90
28484;DHT22;15704;48.834;8.736;2024-03-23T12:02:09;13.30;99.90
28484;DHT22;15704;48.834;8.736;2024-03-23T12:04:36;13.30;99.90
28484;DHT22;15704;48.834;8.736;2024-03-23T12:07:16;13.30;99.90
28484;DHT22;15704;48.834;8.736;2024-03-23T12:09:47;13.30;99.90
28484;DHT22;15704;48.834;8.736;2024-03-23T12:12:15;13.30;99.90
28484;DHT22;15704;48.834;8.736;2024-03-23T12:14:45;13.30;99.90
28484;DHT22;15704;48.834;8.736;2024-03-23T12:17:26;13.30;99.90
28484;DHT22;15704;48.834;8.736;2024-03-23T12:19:52;13.30;99.90
28484;DHT22;15704;48.834;8.736;2024-03-23T12:22:22;13.30;99.90
28484;DHT22;15704;48.834;8.736;2024-03-23T12:24:49;13.30;99.90
28484;DHT22;15704;48.834;8.736;2024-03-23T12:27:15;13.30;99.90
28484;DHT22;15704;48.834;8.736;2024-03-23T12:29:41;13.30;99.90
28484;DHT22;15704;48.834;8.736;2024-03-23T12:32:09;13.30;99.90
28484;DHT22;15704;48.834;8.736;2024-03-23T12:34:38;13.30;99.90
28484;DHT22;15704;48.834;8.736;2024-03-23T12:37:04;13.30;99.90
28484;DHT22;15704;48.834;8.736;2024-03-23T12:39:31;13.30;99.90
28484;DHT22;15704;48.834;8.736;2024-03-23T12:41:57;13.30;99.90
28484;DHT22;15704;48.834;8.736;2024-03-23T12:44:25;13.30;99.90
28484;DHT22;15704;48.834;8.736;2024-03-23T12:46:51;13.30;99.90
28484;DHT22;15704;48.834;8.736;2024-03-23T12:49:17;13.40;99.90
28484;DHT22;15704;48.834;8.736;2024-03-23T12:52:03;13.40;99.90
28484;DHT22;15704;48.834;8.736;2024-03-23T12:54:30;13.30;99.90
28484;DHT22;15704;48.834;8.736;2024-03-23T12:56:57;13.40;99.90
28484;DHT22;15704;48.834;8.736;2024-03-23T12:59:22;13.40;99.90
28484;DHT22;15704;48.834;8.736;2024-03-23T13:01:48;13.40;99.90
28484;DHT22;15704;48.834;8.736;2024-03-23T13:04:14;13.40;99.90
28484;DHT22;15704;48.834;8.736;2024-03-23T13:06:40;13.40;99.90
28484;DHT22;15704;48.834;8.736;2024-03-23T13:09:06;13.40;99.90
28484;DHT22;15704;48.834;8.736;2024-03-23T13:11:32;13.40;99.90
28484;DHT22;15704;48.834;8.736;2024-03-23T13:13:58;13.40;99.90
28484;DHT22;15704;48.834;8.736;2024-03-23T13:16:27;13.40;99.90
28484;DHT22;15704;48.834;8.736;2024-03-23T13:18:52;13.40;99.90
28484;DHT22;15704;48.834;8.736;2024-03-23T13:21:18;13.40;99.90
28484;DHT22;15704;48.834;8.736;2024-03-23T13:23:48;13.40;99.90
28484;DHT22;15704;48.834;8.736;2024-03-23T13:26:15;13.40;99.90
28484;DHT22;15704;48.834;8.736;2024-03-23T13:28:41;13.40;99.90
28484;DHT22;15704;48.834;8.736;2024-03-23T13:31:07;13.40;99.90
28484;DHT22;15704;48.834;8.736;2024-03-23T13:33:34;13.40;99.90
28484;DHT22;15704;48.834;8.736;2024-03-23T13:36:00;13.40;99.90
28484;DHT22;15704;48.834;8.736;2024-03-23T13:38:26;13.40;99.90
28484;DHT22;15704;48.834;8.736;2024-03-23T13:40:59;13.40;99.90
28484;DHT22;15704;48.834;8.736;2024-03-23T13:43:27;13.40;99.90
28484;DHT22;15704;48.834;8.736;2024-03-23T13:45:57;13.40;99.90
28484;DHT22;15704;48.834;8.736;2024-03-23T13:48:24;13.30;99.90
28484;DHT22;15704;48.834;8.736;2024-03-23T13:51:08;13.30;99.90
28484;DHT22;15704;48.834;8.736;2024-03-23T13:53:34;13.30;99.90
28484;DHT22;15704;48.834;8.736;2024-03-23T13:56:00;13.30;99.90
28484;DHT22;15704;48.834;8.736;2024-03-23T13:58:26;13.20;99.90
28484;DHT22;15704;48.834;8.736;2024-03-23T14:00:52;13.30;99.90
28484;DHT22;15704;48.834;8.736;2024-03-23T14:03:18;13.20;99.90
28484;DHT22;15704;48.834;8.736;2024-03-23T14:05:44;13.30;99.90
28484;DHT22;15704;48.834;8.736;2024-03-23T14:08:12;13.20;99.90
28484;DHT22;15704;48.834;8.736;2024-03-23T14:10:42;13.20;99.90
28484;DHT22;15704;48.834;8.736;2024-03-23T14:13:08;13.20;99.90
28484;DHT22;15704;48.834;8.736;2024-03-23T14:15:34;13.20;99.90
28484;DHT22;15704;48.834;8.736;2024-03-23T14:18:02;13.30;99.90
28484;DHT22;15704;48.834;8.736;2024-03-23T14:20:29;13.20;99.90
28484;DHT22;15704;48.834;8.736;2024-03-23T14:22:54;13.20;99.90
28484;DHT22;15704;48.834;8.736;2024-03-23T14:25:21;13.20;99.90
28484;DHT22;15704;48.834;8.736;2024-03-23T14:27:49;13.20;99.90
28484;DHT22;15704;48.834;8.736;2024-03-23T14:30:15;13.20;99.90
28484;DHT22;15704;48.834;8.736;2024-03-23T14:32:41;13.20;99.90
28484;DHT22;15704;48.834;8.736;2024-03-23T14:35:07;13.20;99.90
28484;DHT22;15704;48.834;8.736;2024-03-23T14:37:37;13.20;99.90
28484;DHT22;15704;48.834;8.736;2024-03-23T14:40:04;13.20;99.90
28484;DHT22;15704;48.834;8.736;2024-03-23T14:42:30;13.20;99.90
28484;DHT22;15704;48.834;8.736;2024-03-23T14:44:58;13.20;99.90
28484;DHT22;15704;48.834;8.736;2024-03-23T14:47:24;13.20;99.90
28484;DHT22;15704;48.834;8.736;2024-03-23T14:49:50;13.20;99.90
28484;DHT22;15704;48.834;8.736;2024-03-23T14:52:17;13.20;99.90
28484;DHT22;15704;48.834;8.736;2024-03-23T14:54:44;13.20;99.90
28484;DHT22;15704;48.834;8.736;2024-03-23T14:57:09;13.20;99.90
28484;DHT22;15704;48.834;8.736;2024-03-23T14:59:36;13.20;99.90
28484;DHT22;15704;48.834;8.736;2024-03-23T15:02:07;13.20;99.90
28484;DHT22;15704;48.834;8.736;2024-03-23T15:04:34;13.20;99.90
28484;DHT22;15704;48.834;8.736;2024-03-23T15:07:00;13.20;99.90
28484;DHT22;15704;48.834;8.736;2024-03-23T15:09:26;13.10;99.90
28484;DHT22;15704;48.834;8.736;2024-03-23T15:11:52;13.10;99.90
28484;DHT22;15704;48.834;8.736;2024-03-23T15:14:20;13.10;99.90
28484;DHT22;15704;48.834;8.736;2024-03-23T15:16:46;13.10;99.90
28484;DHT22;15704;48.834;8.736;2024-03-23T15:19:14;13.20;99.90
28484;DHT22;15704;48.834;8.736;2024-03-23T15:21:41;13.10;99.90
28484;DHT22;15704;48.834;8.736;2024-03-23T15:24:08;13.10;99.90
28484;DHT22;15704;48.834;8.736;2024-03-23T15:26:37;13.10;99.90
28484;DHT22;15704;48.834;8.736;2024-03-23T15:29:03;13.10;99.90
28484;DHT22;15704;48.834;8.736;2024-03-23T15:31:35;13.20;99.90
28484;DHT22;15704;48.834;8.736;2024-03-23T15:34:01;13.10;99.90
28484;DHT22;15704;48.834;8.736;2024-03-23T15:36:27;13.20;99.90
28484;DHT22;15704;48.834;8.736;2024-03-23T15:38:53;13.20;99.90
28484;DHT22;15704;48.834;8.736;2024-03-23T15:41:20;13.20;99.90
28484;DHT22;15704;48.834;8.736;2024-03-23T15:43:48;13.20;99.90
28484;DHT22;15704;48.834;8.736;2024-03-23T15:46:14;13.20;99.90
28484;DHT22;15704;48.834;8.736;2024-03-23T15:48:41;13.20;99.90
28484;DHT22;15704;48.834;8.736;2024-03-23T15:51:12;13.20;99.90
28484;DHT22;15704;48.834;8.736;2024-03-23T15:53:38;13.20;99.90
28484;DHT22;15704;48.834;8.736;2024-03-23T15:56:04;13.20;99.90
28484;DHT22;15704;48.834;8.736;2024-03-23T15:58:31;13.20;99.90
28484;DHT22;15704;48.834;8.736;2024-03-23T16:00:59;13.10;99.90
28484;DHT22;15704;48.834;8.736;2024-03-23T16:03:25;13.20;99.90
28484;DHT22;15704;48.834;8.736;2024-03-23T16:06:01;13.10;99.90
28484;DHT22;15704;48.834;8.736;2024-03-23T16:08:29;13.20;99.90
28484;DHT22;15704;48.834;8.736;2024-03-23T16:10:59;13.10;99.90
28484;DHT22;15704;48.834;8.736;2024-03-23T16:13:25;13.10;99.90
28484;DHT22;15704;48.834;8.736;2024-03-23T16:15:56;13.10;99.90
28484;DHT22;15704;48.834;8.736;2024-03-23T16:18:22;13.20;99.90
28484;DHT22;15704;48.834;8.736;2024-03-23T16:20:58;13.10;99.90
28484;DHT22;15704;48.834;8.736;2024-03-23T16:23:24;13.20;99.90
28484;DHT22;15704;48.834;8.736;2024-03-23T16:25:51;13.10;99.90
28484;DHT22;15704;48.834;8.736;2024-03-23T16:28:35;13.10;99.90
28484;DHT22;15704;48.834;8.736;2024-03-23T16:31:05;13.10;99.90
28484;DHT22;15704;48.834;8.736;2024-03-23T16:33:32;13.10;99.90
28484;DHT22;15704;48.834;8.736;2024-03-23T16:36:00;13.10;99.90